Etusivu
METAR-TAF:

METAR-TAF

Lentoasemat :

Sindal, Tanska

Leveyspiiri: 57-30N, Pituuspiiri: 010-13E, korkeus merenpinnasta: 28 m

Tämänhetkinen sää

Tämä raportti tehtiin 17 minuuttia sitten, kello 06.20 UTC
Tuuli 6 kn etelästä
Lämpötila 13°C
Kosteus 94%
Ilmanpaine 1012 hPa
Näkyvyys 10 km tai enemmän
ei pilviä alle 1500 m:ssä eikä cumulonimbus-pilviä

METAR: EKSN 240620Z 17006KT CAVOK 13/12 Q1012

Aika: 08:37 (06:37 UTC)

Sääennuste

Tämä raportti tehtiin 21 tuntia ja 47 minuuttia sitten, kello 08.50 UTC
Ennuste voimassa 23. päivästä klo 09 UTC - 23. päivään klo 15 UTC
Tuuli 6 kn idästä/kaakosta
Näkyvyys 10 km tai enemmän
Muutamia pilviä 4000 ft:n korkeudessa

TAF: EKSN 230850Z 2309/2315 11006KT 9999 FEW040

Säähavainnot ja -ennusteet yli 4000 lentoasemalta (METAR- ja TAF-raportit).

Käytössä olevat sääasemat on merkitty karttaan keltaisilla ja punaisilla pisteillä.

Aseta hiiri pisteen päälle nähdäksesi sääaseman nimen.

Klikkaa sitten nähdäksesi säähavainnot ja -ennusteet.

Kartan vaihtaminen: klikkaa mustalla rastilla varustettuja vihreitä pisteitä, niin voit zoomata sisään; viivalla varustettua vihreää pistettä, niin voit zoomata ulos tai vihreitä nuolia, niin pääset viereisille kartoille.


METAR-TAF: